sensor_id;sensor_type;location;lat;lon;timestamp;pressure;altitude;pressure_sealevel;temperature;humidity
64192;BME280;50497;50.720;-2.084;2022-09-09T00:07:08;100362.91;;;15.02;100.00
64192;BME280;50497;50.720;-2.084;2022-09-09T00:09:45;100366.13;;;15.07;100.00
64192;BME280;50497;50.720;-2.084;2022-09-09T00:12:34;100376.03;;;15.07;100.00
64192;BME280;50497;50.720;-2.084;2022-09-09T00:15:11;100360.97;;;15.04;100.00
64192;BME280;50497;50.720;-2.084;2022-09-09T00:17:57;100378.09;;;15.16;100.00
64192;BME280;50497;50.720;-2.084;2022-09-09T00:20:55;100384.22;;;15.18;100.00
64192;BME280;50497;50.720;-2.084;2022-09-09T00:23:42;100367.53;;;15.13;100.00
64192;BME280;50497;50.720;-2.084;2022-09-09T00:31:38;100383.69;;;15.26;100.00
64192;BME280;50497;50.720;-2.084;2022-09-09T00:34:16;100378.41;;;15.24;100.00
64192;BME280;50497;50.720;-2.084;2022-09-09T00:36:43;100376.56;;;15.25;100.00
64192;BME280;50497;50.720;-2.084;2022-09-09T00:39:27;100388.06;;;15.27;100.00
64192;BME280;50497;50.720;-2.084;2022-09-09T00:42:17;100382.16;;;15.22;100.00
64192;BME280;50497;50.720;-2.084;2022-09-09T00:44:59;100386.78;;;15.32;100.00
64192;BME280;50497;50.720;-2.084;2022-09-09T00:47:49;100386.59;;;15.23;100.00
64192;BME280;50497;50.720;-2.084;2022-09-09T00:56:13;100397.81;;;15.04;100.00
64192;BME280;50497;50.720;-2.084;2022-09-09T00:58:43;100395.59;;;14.98;100.00
64192;BME280;50497;50.720;-2.084;2022-09-09T01:01:12;100400.19;;;14.95;100.00
64192;BME280;50497;50.720;-2.084;2022-09-09T01:03:54;100404.94;;;14.92;100.00
64192;BME280;50497;50.720;-2.084;2022-09-09T01:06:37;100416.81;;;14.89;100.00
64192;BME280;50497;50.720;-2.084;2022-09-09T01:12:12;100404.94;;;14.79;100.00
64192;BME280;50497;50.720;-2.084;2022-09-09T01:14:48;100407.88;;;14.76;100.00
64192;BME280;50497;50.720;-2.084;2022-09-09T01:27:39;100428.31;;;14.66;100.00
64192;BME280;50497;50.720;-2.084;2022-09-09T01:30:16;100432.94;;;14.64;100.00
64192;BME280;50497;50.720;-2.084;2022-09-09T01:32:54;100433.25;;;14.59;100.00
64192;BME280;50497;50.720;-2.084;2022-09-09T01:37:56;100448.75;;;14.55;100.00
64192;BME280;50497;50.720;-2.084;2022-09-09T01:40:22;100441.84;;;14.51;100.00
64192;BME280;50497;50.720;-2.084;2022-09-09T01:42:52;100441.97;;;14.50;100.00
64192;BME280;50497;50.720;-2.084;2022-09-09T01:45:18;100447.75;;;14.44;100.00
64192;BME280;50497;50.720;-2.084;2022-09-09T01:47:45;100450.56;;;14.42;100.00
64192;BME280;50497;50.720;-2.084;2022-09-09T01:50:14;100428.69;;;14.34;100.00
64192;BME280;50497;50.720;-2.084;2022-09-09T01:52:40;100444.22;;;14.43;100.00
64192;BME280;50497;50.720;-2.084;2022-09-09T01:55:08;100452.50;;;14.40;100.00
64192;BME280;50497;50.720;-2.084;2022-09-09T01:58:11;100457.78;;;14.41;100.00
64192;BME280;50497;50.720;-2.084;2022-09-09T02:01:05;100463.47;;;14.37;100.00
64192;BME280;50497;50.720;-2.084;2022-09-09T02:03:35;100460.56;;;14.40;100.00
64192;BME280;50497;50.720;-2.084;2022-09-09T02:08:50;100457.47;;;14.46;100.00
64192;BME280;50497;50.720;-2.084;2022-09-09T02:11:18;100456.38;;;14.49;100.00
64192;BME280;50497;50.720;-2.084;2022-09-09T02:13:46;100466.84;;;14.53;100.00
64192;BME280;50497;50.720;-2.084;2022-09-09T02:19:15;100445.31;;;14.53;100.00
64192;BME280;50497;50.720;-2.084;2022-09-09T02:21:53;100445.84;;;14.58;100.00
64192;BME280;50497;50.720;-2.084;2022-09-09T02:24:25;100456.81;;;14.55;100.00
64192;BME280;50497;50.720;-2.084;2022-09-09T02:26:54;100446.78;;;14.57;100.00
64192;BME280;50497;50.720;-2.084;2022-09-09T02:29:29;100452.78;;;14.63;100.00
64192;BME280;50497;50.720;-2.084;2022-09-09T02:31:59;100447.41;;;14.63;100.00
64192;BME280;50497;50.720;-2.084;2022-09-09T02:34:30;100451.22;;;14.58;100.00
64192;BME280;50497;50.720;-2.084;2022-09-09T02:36:57;100459.78;;;14.65;100.00
64192;BME280;50497;50.720;-2.084;2022-09-09T02:39:25;100464.63;;;14.60;100.00
64192;BME280;50497;50.720;-2.084;2022-09-09T02:41:51;100463.56;;;14.63;100.00
64192;BME280;50497;50.720;-2.084;2022-09-09T02:44:18;100468.81;;;14.64;100.00
64192;BME280;50497;50.720;-2.084;2022-09-09T02:47:30;100469.16;;;14.59;100.00
64192;BME280;50497;50.720;-2.084;2022-09-09T02:55:54;100472.97;;;14.55;100.00
64192;BME280;50497;50.720;-2.084;2022-09-09T02:58:26;100477.91;;;14.49;100.00
64192;BME280;50497;50.720;-2.084;2022-09-09T03:00:54;100465.88;;;14.54;100.00
64192;BME280;50497;50.720;-2.084;2022-09-09T03:03:23;100479.53;;;14.51;100.00
64192;BME280;50497;50.720;-2.084;2022-09-09T03:05:49;100486.63;;;14.52;100.00
64192;BME280;50497;50.720;-2.084;2022-09-09T03:08:15;100487.63;;;14.51;100.00
64192;BME280;50497;50.720;-2.084;2022-09-09T03:10:41;100486.72;;;14.51;100.00
64192;BME280;50497;50.720;-2.084;2022-09-09T03:13:07;100497.09;;;14.57;100.00
64192;BME280;50497;50.720;-2.084;2022-09-09T03:15:37;100489.31;;;14.52;100.00
64192;BME280;50497;50.720;-2.084;2022-09-09T03:18:03;100482.44;;;14.48;100.00
64192;BME280;50497;50.720;-2.084;2022-09-09T03:20:30;100487.63;;;14.51;100.00
64192;BME280;50497;50.720;-2.084;2022-09-09T03:22:56;100488.69;;;14.49;100.00
64192;BME280;50497;50.720;-2.084;2022-09-09T03:25:22;100488.38;;;14.53;100.00
64192;BME280;50497;50.720;-2.084;2022-09-09T03:27:53;100489.31;;;14.52;100.00
64192;BME280;50497;50.720;-2.084;2022-09-09T03:30:23;100481.16;;;14.54;100.00
64192;BME280;50497;50.720;-2.084;2022-09-09T03:32:49;100488.38;;;14.53;100.00
64192;BME280;50497;50.720;-2.084;2022-09-09T03:35:15;100491.16;;;14.52;100.00
64192;BME280;50497;50.720;-2.084;2022-09-09T03:37:41;100491.38;;;14.49;100.00
64192;BME280;50497;50.720;-2.084;2022-09-09T03:40:08;100493.00;;;14.51;100.00
64192;BME280;50497;50.720;-2.084;2022-09-09T03:42:35;100500.88;;;14.54;100.00
64192;BME280;50497;50.720;-2.084;2022-09-09T03:45:06;100507.00;;;14.56;100.00
64192;BME280;50497;50.720;-2.084;2022-09-09T03:47:38;100503.34;;;14.57;100.00
64192;BME280;50497;50.720;-2.084;2022-09-09T03:50:06;100505.06;;;14.58;100.00
64192;BME280;50497;50.720;-2.084;2022-09-09T03:52:43;100506.63;;;14.63;100.00
64192;BME280;50497;50.720;-2.084;2022-09-09T03:55:09;100516.41;;;14.64;100.00
64192;BME280;50497;50.720;-2.084;2022-09-09T03:57:39;100505.34;;;14.68;100.00
64192;BME280;50497;50.720;-2.084;2022-09-09T04:00:06;100519.56;;;14.70;100.00
64192;BME280;50497;50.720;-2.084;2022-09-09T04:02:32;100516.75;;;14.72;100.00
64192;BME280;50497;50.720;-2.084;2022-09-09T04:04:58;100519.34;;;14.73;100.00
64192;BME280;50497;50.720;-2.084;2022-09-09T04:07:28;100515.47;;;14.65;100.00
64192;BME280;50497;50.720;-2.084;2022-09-09T04:09:54;100520.09;;;14.75;100.00
64192;BME280;50497;50.720;-2.084;2022-09-09T04:12:20;100519.34;;;14.73;100.00
64192;BME280;50497;50.720;-2.084;2022-09-09T04:14:46;100522.78;;;14.75;100.00
64192;BME280;50497;50.720;-2.084;2022-09-09T04:17:16;100534.00;;;14.69;100.00
64192;BME280;50497;50.720;-2.084;2022-09-09T04:19:42;100518.69;;;14.70;100.00
64192;BME280;50497;50.720;-2.084;2022-09-09T04:22:08;100534.09;;;14.81;100.00
64192;BME280;50497;50.720;-2.084;2022-09-09T04:24:33;100536.91;;;14.79;100.00
64192;BME280;50497;50.720;-2.084;2022-09-09T04:27:00;100522.16;;;14.72;100.00
64192;BME280;50497;50.720;-2.084;2022-09-09T04:29:25;100527.28;;;14.62;100.00
64192;BME280;50497;50.720;-2.084;2022-09-09T04:31:51;100538.50;;;14.69;100.00
64192;BME280;50497;50.720;-2.084;2022-09-09T04:34:16;100548.72;;;14.64;100.00
64192;BME280;50497;50.720;-2.084;2022-09-09T04:36:42;100532.00;;;14.58;100.00
64192;BME280;50497;50.720;-2.084;2022-09-09T04:39:08;100529.91;;;14.49;100.00
64192;BME280;50497;50.720;-2.084;2022-09-09T04:41:33;100547.59;;;14.53;100.00
64192;BME280;50497;50.720;-2.084;2022-09-09T04:44:01;100553.28;;;14.49;100.00
64192;BME280;50497;50.720;-2.084;2022-09-09T04:46:26;100546.34;;;14.32;100.00
64192;BME280;50497;50.720;-2.084;2022-09-09T04:48:52;100547.66;;;14.39;100.00
64192;BME280;50497;50.720;-2.084;2022-09-09T04:51:18;100554.97;;;14.37;100.00
64192;BME280;50497;50.720;-2.084;2022-09-09T04:53:44;100564.97;;;14.35;100.00
64192;BME280;50497;50.720;-2.084;2022-09-09T04:56:13;100560.53;;;14.34;100.00
64192;BME280;50497;50.720;-2.084;2022-09-09T04:58:40;100558.47;;;14.25;100.00
64192;BME280;50497;50.720;-2.084;2022-09-09T05:01:19;100559.63;;;14.20;100.00
64192;BME280;50497;50.720;-2.084;2022-09-09T05:03:49;100569.53;;;14.20;100.00
64192;BME280;50497;50.720;-2.084;2022-09-09T05:06:17;100568.88;;;14.16;100.00
64192;BME280;50497;50.720;-2.084;2022-09-09T05:08:44;100571.88;;;14.12;100.00
64192;BME280;50497;50.720;-2.084;2022-09-09T05:11:22;100567.06;;;14.02;100.00
64192;BME280;50497;50.720;-2.084;2022-09-09T05:13:49;100570.06;;;13.98;100.00
64192;BME280;50497;50.720;-2.084;2022-09-09T05:16:16;100573.06;;;13.93;100.00
64192;BME280;50497;50.720;-2.084;2022-09-09T05:18:43;100571.50;;;13.89;100.00
64192;BME280;50497;50.720;-2.084;2022-09-09T05:21:10;100576.97;;;13.88;100.00
64192;BME280;50497;50.720;-2.084;2022-09-09T05:23:36;100583.44;;;13.85;100.00
64192;BME280;50497;50.720;-2.084;2022-09-09T05:26:07;100593.53;;;13.81;100.00
64192;BME280;50497;50.720;-2.084;2022-09-09T05:28:34;100601.13;;;13.75;100.00
64192;BME280;50497;50.720;-2.084;2022-09-09T05:31:03;100603.13;;;13.71;100.00
64192;BME280;50497;50.720;-2.084;2022-09-09T05:33:31;100618.19;;;13.74;100.00
64192;BME280;50497;50.720;-2.084;2022-09-09T05:35:58;100611.69;;;13.63;100.00
64192;BME280;50497;50.720;-2.084;2022-09-09T05:38:24;100614.38;;;13.63;100.00
64192;BME280;50497;50.720;-2.084;2022-09-09T05:40:51;100619.47;;;13.68;100.00
64192;BME280;50497;50.720;-2.084;2022-09-09T05:43:18;100620.50;;;13.65;100.00
64192;BME280;50497;50.720;-2.084;2022-09-09T05:45:43;100617.69;;;13.53;100.00
64192;BME280;50497;50.720;-2.084;2022-09-09T05:48:09;100625.09;;;13.49;100.00
64192;BME280;50497;50.720;-2.084;2022-09-09T05:50:34;100614.13;;;13.38;100.00
64192;BME280;50497;50.720;-2.084;2022-09-09T05:52:59;100629.22;;;13.40;100.00
64192;BME280;50497;50.720;-2.084;2022-09-09T05:55:25;100638.91;;;13.43;100.00
64192;BME280;50497;50.720;-2.084;2022-09-09T05:57:51;100639.38;;;13.35;100.00
64192;BME280;50497;50.720;-2.084;2022-09-09T06:00:17;100640.91;;;13.39;100.00
64192;BME280;50497;50.720;-2.084;2022-09-09T06:02:42;100642.84;;;13.37;100.00
64192;BME280;50497;50.720;-2.084;2022-09-09T06:05:08;100631.56;;;13.30;100.00
64192;BME280;50497;50.720;-2.084;2022-09-09T06:07:34;100649.38;;;13.33;100.00
64192;BME280;50497;50.720;-2.084;2022-09-09T06:09:59;100653.59;;;13.37;100.00
64192;BME280;50497;50.720;-2.084;2022-09-09T06:12:25;100662.50;;;13.38;100.00
64192;BME280;50497;50.720;-2.084;2022-09-09T06:14:50;100651.22;;;13.31;100.00
64192;BME280;50497;50.720;-2.084;2022-09-09T06:17:17;100645.94;;;13.29;100.00
64192;BME280;50497;50.720;-2.084;2022-09-09T06:19:42;100647.00;;;13.27;100.00
64192;BME280;50497;50.720;-2.084;2022-09-09T06:22:08;100663.41;;;13.38;100.00
64192;BME280;50497;50.720;-2.084;2022-09-09T06:24:37;100669.03;;;13.34;100.00
64192;BME280;50497;50.720;-2.084;2022-09-09T06:27:03;100676.03;;;13.36;100.00
64192;BME280;50497;50.720;-2.084;2022-09-09T06:29:30;100673.34;;;13.36;100.00
64192;BME280;50497;50.720;-2.084;2022-09-09T06:31:55;100677.69;;;13.39;100.00
64192;BME280;50497;50.720;-2.084;2022-09-09T06:34:21;100680.47;;;13.37;100.00
64192;BME280;50497;50.720;-2.084;2022-09-09T06:36:54;100672.22;;;13.40;100.00
64192;BME280;50497;50.720;-2.084;2022-09-09T06:39:19;100677.22;;;13.46;100.00
64192;BME280;50497;50.720;-2.084;2022-09-09T06:41:45;100695.59;;;13.68;100.00
64192;BME280;50497;50.720;-2.084;2022-09-09T06:44:10;100676.97;;;13.65;100.00
64192;BME280;50497;50.720;-2.084;2022-09-09T06:46:37;100688.50;;;13.82;100.00
64192;BME280;50497;50.720;-2.084;2022-09-09T06:49:03;100700.03;;;13.84;100.00
64192;BME280;50497;50.720;-2.084;2022-09-09T06:51:30;100695.31;;;13.88;100.00
64192;BME280;50497;50.720;-2.084;2022-09-09T06:53:58;100696.09;;;13.90;100.00
64192;BME280;50497;50.720;-2.084;2022-09-09T06:56:30;100694.66;;;13.98;100.00
64192;BME280;50497;50.720;-2.084;2022-09-09T06:58:59;100700.53;;;14.05;100.00
64192;BME280;50497;50.720;-2.084;2022-09-09T07:01:28;100702.63;;;14.14;100.00
64192;BME280;50497;50.720;-2.084;2022-09-09T07:03:59;100709.75;;;14.30;100.00
64192;BME280;50497;50.720;-2.084;2022-09-09T07:06:30;100707.00;;;14.44;100.00
64192;BME280;50497;50.720;-2.084;2022-09-09T07:09:02;100710.38;;;14.62;100.00
64192;BME280;50497;50.720;-2.084;2022-09-09T07:11:30;100707.56;;;14.78;100.00
64192;BME280;50497;50.720;-2.084;2022-09-09T07:14:00;100712.03;;;14.92;100.00
64192;BME280;50497;50.720;-2.084;2022-09-09T07:16:27;100710.56;;;15.01;100.00
64192;BME280;50497;50.720;-2.084;2022-09-09T07:18:54;100719.78;;;15.11;100.00
64192;BME280;50497;50.720;-2.084;2022-09-09T07:21:24;100723.03;;;15.16;100.00
64192;BME280;50497;50.720;-2.084;2022-09-09T07:23:51;100724.78;;;15.30;100.00
64192;BME280;50497;50.720;-2.084;2022-09-09T07:26:19;100714.75;;;15.32;100.00
64192;BME280;50497;50.720;-2.084;2022-09-09T07:28:46;100722.66;;;15.48;100.00
64192;BME280;50497;50.720;-2.084;2022-09-09T07:31:21;100732.72;;;15.59;100.00
64192;BME280;50497;50.720;-2.084;2022-09-09T07:33:50;100710.28;;;15.58;100.00
64192;BME280;50497;50.720;-2.084;2022-09-09T07:36:16;100733.94;;;15.67;100.00
64192;BME280;50497;50.720;-2.084;2022-09-09T07:38:45;100723.88;;;15.69;100.00
64192;BME280;50497;50.720;-2.084;2022-09-09T07:41:16;100735.31;;;15.73;100.00
64192;BME280;50497;50.720;-2.084;2022-09-09T07:43:44;100744.28;;;15.74;100.00
64192;BME280;50497;50.720;-2.084;2022-09-09T07:46:11;100748.81;;;15.73;100.00
64192;BME280;50497;50.720;-2.084;2022-09-09T07:48:38;100759.31;;;15.78;100.00
64192;BME280;50497;50.720;-2.084;2022-09-09T07:51:08;100752.41;;;15.86;100.00
64192;BME280;50497;50.720;-2.084;2022-09-09T07:53:34;100755.44;;;15.82;100.00
64192;BME280;50497;50.720;-2.084;2022-09-09T07:56:07;100755.44;;;15.95;100.00
64192;BME280;50497;50.720;-2.084;2022-09-09T07:58:35;100762.28;;;16.00;100.00
64192;BME280;50497;50.720;-2.084;2022-09-09T08:01:09;100751.03;;;16.06;100.00
64192;BME280;50497;50.720;-2.084;2022-09-09T08:03:35;100758.50;;;16.16;100.00
64192;BME280;50497;50.720;-2.084;2022-09-09T08:06:03;100746.28;;;15.97;100.00
64192;BME280;50497;50.720;-2.084;2022-09-09T08:08:29;100752.03;;;16.05;100.00
64192;BME280;50497;50.720;-2.084;2022-09-09T08:11:14;100753.09;;;16.03;100.00
64192;BME280;50497;50.720;-2.084;2022-09-09T08:13:40;100760.44;;;16.14;100.00
64192;BME280;50497;50.720;-2.084;2022-09-09T08:16:08;100765.72;;;16.28;100.00
64192;BME280;50497;50.720;-2.084;2022-09-09T08:18:34;100750.81;;;16.10;100.00
64192;BME280;50497;50.720;-2.084;2022-09-09T08:21:12;100769.28;;;16.29;100.00
64192;BME280;50497;50.720;-2.084;2022-09-09T08:23:42;100765.69;;;16.41;100.00
64192;BME280;50497;50.720;-2.084;2022-09-09T08:26:14;100773.69;;;16.55;100.00
64192;BME280;50497;50.720;-2.084;2022-09-09T08:28:40;100765.06;;;16.50;100.00
64192;BME280;50497;50.720;-2.084;2022-09-09T08:31:13;100765.13;;;16.61;100.00
64192;BME280;50497;50.720;-2.084;2022-09-09T08:33:39;100768.53;;;16.76;100.00
64192;BME280;50497;50.720;-2.084;2022-09-09T08:36:05;100772.53;;;16.84;100.00
64192;BME280;50497;50.720;-2.084;2022-09-09T08:38:31;100772.78;;;16.68;100.00
64192;BME280;50497;50.720;-2.084;2022-09-09T08:43:47;100761.47;;;16.50;100.00
64192;BME280;50497;50.720;-2.084;2022-09-09T08:46:36;100775.78;;;16.76;100.00
64192;BME280;50497;50.720;-2.084;2022-09-09T08:49:17;100780.75;;;16.82;100.00
64192;BME280;50497;50.720;-2.084;2022-09-09T08:51:48;100780.50;;;17.35;100.00
64192;BME280;50497;50.720;-2.084;2022-09-09T08:54:14;100766.28;;;17.20;100.00
64192;BME280;50497;50.720;-2.084;2022-09-09T08:56:41;100773.13;;;17.72;100.00
64192;BME280;50497;50.720;-2.084;2022-09-09T08:59:11;100772.00;;;18.10;100.00
64192;BME280;50497;50.720;-2.084;2022-09-09T09:05:00;100788.03;;;18.59;100.00
64192;BME280;50497;50.720;-2.084;2022-09-09T09:10:49;100760.81;;;19.91;100.00
64192;BME280;50497;50.720;-2.084;2022-09-09T09:16:34;100748.97;;;20.75;100.00
64192;BME280;50497;50.720;-2.084;2022-09-09T09:19:03;100763.56;;;20.74;100.00
64192;BME280;50497;50.720;-2.084;2022-09-09T09:24:20;100778.50;;;19.53;100.00
64192;BME280;50497;50.720;-2.084;2022-09-09T09:26:47;100767.72;;;18.98;100.00
64192;BME280;50497;50.720;-2.084;2022-09-09T09:29:16;100782.16;;;18.65;100.00
64192;BME280;50497;50.720;-2.084;2022-09-09T09:31:56;100780.53;;;18.17;100.00
64192;BME280;50497;50.720;-2.084;2022-09-09T09:34:24;100796.19;;;17.89;100.00
64192;BME280;50497;50.720;-2.084;2022-09-09T09:36:54;100819.81;;;17.87;100.00
64192;BME280;50497;50.720;-2.084;2022-09-09T09:39:28;100825.31;;;17.86;100.00
64192;BME280;50497;50.720;-2.084;2022-09-09T09:41:54;100816.41;;;17.72;100.00
64192;BME280;50497;50.720;-2.084;2022-09-09T09:44:31;100822.22;;;17.79;100.00
64192;BME280;50497;50.720;-2.084;2022-09-09T09:47:18;100807.94;;;17.77;100.00
64192;BME280;50497;50.720;-2.084;2022-09-09T09:50:00;100841.00;;;17.69;100.00
64192;BME280;50497;50.720;-2.084;2022-09-09T09:52:28;100834.00;;;17.67;100.00
64192;BME280;50497;50.720;-2.084;2022-09-09T09:54:55;100836.06;;;17.63;100.00
64192;BME280;50497;50.720;-2.084;2022-09-09T09:57:27;100844.09;;;17.76;100.00
64192;BME280;50497;50.720;-2.084;2022-09-09T10:00:15;100837.22;;;18.07;100.00
64192;BME280;50497;50.720;-2.084;2022-09-09T10:02:44;100838.66;;;18.36;100.00
64192;BME280;50497;50.720;-2.084;2022-09-09T10:05:28;100834.59;;;18.41;100.00
64192;BME280;50497;50.720;-2.084;2022-09-09T10:08:05;100824.75;;;18.40;100.00
64192;BME280;50497;50.720;-2.084;2022-09-09T10:13:47;100849.97;;;18.41;100.00
64192;BME280;50497;50.720;-2.084;2022-09-09T10:19:00;100854.47;;;18.06;100.00
64192;BME280;50497;50.720;-2.084;2022-09-09T10:27:24;100869.63;;;17.85;100.00
64192;BME280;50497;50.720;-2.084;2022-09-09T10:30:09;100861.38;;;17.86;100.00
64192;BME280;50497;50.720;-2.084;2022-09-09T10:32:38;100870.06;;;18.03;100.00
64192;BME280;50497;50.720;-2.084;2022-09-09T10:35:22;100879.19;;;18.02;100.00
64192;BME280;50497;50.720;-2.084;2022-09-09T10:46:46;100888.22;;;17.89;100.00
64192;BME280;50497;50.720;-2.084;2022-09-09T10:52:38;100903.91;;;17.73;100.00
64192;BME280;50497;50.720;-2.084;2022-09-09T10:55:20;100912.78;;;17.62;100.00
64192;BME280;50497;50.720;-2.084;2022-09-09T10:58:10;100918.63;;;17.69;100.00
64192;BME280;50497;50.720;-2.084;2022-09-09T11:00:41;100914.22;;;17.79;100.00
64192;BME280;50497;50.720;-2.084;2022-09-09T11:03:20;100900.09;;;18.35;100.00
64192;BME280;50497;50.720;-2.084;2022-09-09T11:06:04;100909.84;;;18.38;100.00
64192;BME280;50497;50.720;-2.084;2022-09-09T11:08:32;100917.97;;;18.38;100.00
64192;BME280;50497;50.720;-2.084;2022-09-09T11:11:19;100915.78;;;18.19;100.00
64192;BME280;50497;50.720;-2.084;2022-09-09T11:13:57;100926.16;;;18.25;100.00
64192;BME280;50497;50.720;-2.084;2022-09-09T11:18:57;100917.22;;;18.00;100.00
64192;BME280;50497;50.720;-2.084;2022-09-09T11:21:32;100921.66;;;18.13;100.00
64192;BME280;50497;50.720;-2.084;2022-09-09T11:24:13;100926.81;;;18.04;100.00
64192;BME280;50497;50.720;-2.084;2022-09-09T11:26:51;100934.13;;;17.91;100.00
64192;BME280;50497;50.720;-2.084;2022-09-09T11:34:43;100946.53;;;18.42;100.00
64192;BME280;50497;50.720;-2.084;2022-09-09T11:42:45;100929.31;;;18.54;100.00
64192;BME280;50497;50.720;-2.084;2022-09-09T11:45:30;100926.09;;;18.38;100.00
64192;BME280;50497;50.720;-2.084;2022-09-09T11:48:00;100927.59;;;18.53;100.00
64192;BME280;50497;50.720;-2.084;2022-09-09T11:50:36;100933.34;;;18.95;100.00
64192;BME280;50497;50.720;-2.084;2022-09-09T11:53:19;100929.19;;;19.02;100.00
64192;BME280;50497;50.720;-2.084;2022-09-09T11:56:07;100930.88;;;18.92;100.00
64192;BME280;50497;50.720;-2.084;2022-09-09T11:58:43;100913.06;;;18.54;100.00
64192;BME280;50497;50.720;-2.084;2022-09-09T12:01:26;100941.78;;;18.68;100.00
64192;BME280;50497;50.720;-2.084;2022-09-09T12:04:09;100934.38;;;18.59;100.00
64192;BME280;50497;50.720;-2.084;2022-09-09T12:06:59;100945.31;;;18.57;100.00
64192;BME280;50497;50.720;-2.084;2022-09-09T12:09:35;100941.63;;;18.47;100.00
64192;BME280;50497;50.720;-2.084;2022-09-09T12:17:24;100965.03;;;18.48;100.00
64192;BME280;50497;50.720;-2.084;2022-09-09T12:25:31;100981.66;;;17.58;100.00
64192;BME280;50497;50.720;-2.084;2022-09-09T12:28:05;100981.50;;;17.60;100.00
64192;BME280;50497;50.720;-2.084;2022-09-09T12:31:06;100981.25;;;17.39;100.00
64192;BME280;50497;50.720;-2.084;2022-09-09T12:33:39;100983.47;;;17.58;100.00
64192;BME280;50497;50.720;-2.084;2022-09-09T12:36:15;100988.56;;;17.49;100.00
64192;BME280;50497;50.720;-2.084;2022-09-09T12:38:43;100978.06;;;17.58;100.00
64192;BME280;50497;50.720;-2.084;2022-09-09T12:41:22;100980.31;;;17.64;100.00
64192;BME280;50497;50.720;-2.084;2022-09-09T12:43:49;100979.59;;;17.86;100.00
64192;BME280;50497;50.720;-2.084;2022-09-09T12:46:48;100986.34;;;17.93;100.00
64192;BME280;50497;50.720;-2.084;2022-09-09T12:49:29;100977.19;;;17.70;100.00
64192;BME280;50497;50.720;-2.084;2022-09-09T12:52:04;100975.19;;;17.85;100.00
64192;BME280;50497;50.720;-2.084;2022-09-09T12:54:33;100966.28;;;17.83;100.00
64192;BME280;50497;50.720;-2.084;2022-09-09T12:57:00;100980.09;;;18.04;100.00
64192;BME280;50497;50.720;-2.084;2022-09-09T12:59:26;100978.06;;;18.19;100.00
64192;BME280;50497;50.720;-2.084;2022-09-09T13:01:57;100974.56;;;18.30;100.00
64192;BME280;50497;50.720;-2.084;2022-09-09T13:04:22;100957.13;;;18.45;100.00
64192;BME280;50497;50.720;-2.084;2022-09-09T13:06:48;100960.16;;;18.64;100.00
64192;BME280;50497;50.720;-2.084;2022-09-09T13:09:14;100956.94;;;18.59;100.00
64192;BME280;50497;50.720;-2.084;2022-09-09T13:11:42;100957.66;;;19.08;100.00
64192;BME280;50497;50.720;-2.084;2022-09-09T13:14:28;100948.94;;;18.80;100.00
64192;BME280;50497;50.720;-2.084;2022-09-09T13:17:06;100943.84;;;19.00;100.00
64192;BME280;50497;50.720;-2.084;2022-09-09T13:19:36;100941.00;;;19.13;100.00
64192;BME280;50497;50.720;-2.084;2022-09-09T13:22:13;100936.63;;;19.55;100.00
64192;BME280;50497;50.720;-2.084;2022-09-09T13:24:40;100931.59;;;19.51;100.00
64192;BME280;50497;50.720;-2.084;2022-09-09T13:27:22;100930.09;;;19.58;100.00
64192;BME280;50497;50.720;-2.084;2022-09-09T13:29:54;100928.91;;;19.39;100.00
64192;BME280;50497;50.720;-2.084;2022-09-09T13:32:25;100923.09;;;19.44;100.00
64192;BME280;50497;50.720;-2.084;2022-09-09T13:34:59;100922.75;;;19.26;100.00
64192;BME280;50497;50.720;-2.084;2022-09-09T13:37:38;100928.44;;;19.23;100.00
64192;BME280;50497;50.720;-2.084;2022-09-09T13:40:17;100909.69;;;18.86;100.00
64192;BME280;50497;50.720;-2.084;2022-09-09T13:42:44;100915.38;;;18.94;100.00
64192;BME280;50497;50.720;-2.084;2022-09-09T13:45:18;100933.22;;;19.08;100.00
64192;BME280;50497;50.720;-2.084;2022-09-09T13:47:45;100943.72;;;19.13;100.00
64192;BME280;50497;50.720;-2.084;2022-09-09T13:52:55;100952.81;;;18.89;100.00
64192;BME280;50497;50.720;-2.084;2022-09-09T13:55:25;100941.06;;;18.77;100.00
64192;BME280;50497;50.720;-2.084;2022-09-09T13:57:52;100959.50;;;18.96;100.00
64192;BME280;50497;50.720;-2.084;2022-09-09T14:00:18;100953.44;;;18.93;100.00
64192;BME280;50497;50.720;-2.084;2022-09-09T14:02:44;100954.31;;;18.93;100.00
64192;BME280;50497;50.720;-2.084;2022-09-09T14:05:10;100947.97;;;18.81;100.00
64192;BME280;50497;50.720;-2.084;2022-09-09T14:07:39;100956.19;;;18.69;100.00
64192;BME280;50497;50.720;-2.084;2022-09-09T14:10:08;100956.53;;;18.88;100.00
64192;BME280;50497;50.720;-2.084;2022-09-09T14:12:34;100954.78;;;18.87;100.00
64192;BME280;50497;50.720;-2.084;2022-09-09T14:15:02;100956.41;;;18.90;100.00
64192;BME280;50497;50.720;-2.084;2022-09-09T14:17:28;100940.19;;;18.65;100.00
64192;BME280;50497;50.720;-2.084;2022-09-09T14:19:55;100953.63;;;18.78;100.00
64192;BME280;50497;50.720;-2.084;2022-09-09T14:22:21;100941.78;;;18.68;100.00
64192;BME280;50497;50.720;-2.084;2022-09-09T14:24:47;100944.00;;;18.63;100.00
64192;BME280;50497;50.720;-2.084;2022-09-09T14:27:13;100940.91;;;18.68;100.00
64192;BME280;50497;50.720;-2.084;2022-09-09T14:29:38;100946.75;;;18.74;100.00
64192;BME280;50497;50.720;-2.084;2022-09-09T14:32:04;100936.81;;;18.86;100.00
64192;BME280;50497;50.720;-2.084;2022-09-09T14:34:29;100935.63;;;18.66;100.00
64192;BME280;50497;50.720;-2.084;2022-09-09T14:36:58;100929.34;;;18.65;100.00
64192;BME280;50497;50.720;-2.084;2022-09-09T14:39:24;100940.41;;;18.51;100.00
64192;BME280;50497;50.720;-2.084;2022-09-09T14:41:49;100935.72;;;18.53;100.00